createdAt,value
2018-11-29T00:00:10.935Z,-0.77
2018-11-29T00:01:23.581Z,-0.91
2018-11-29T00:02:33.926Z,-0.93
2018-11-29T00:03:40.138Z,-0.98
2018-11-29T00:04:46.328Z,-1.11
2018-11-29T00:05:52.509Z,-1.17
2018-11-29T00:06:58.380Z,-1.24
2018-11-29T00:08:03.951Z,-1.22
2018-11-29T00:09:09.892Z,-1.23
2018-11-29T00:10:16.150Z,-1.19
2018-11-29T00:11:22.349Z,-1.22
2018-11-29T00:12:28.219Z,-1.22
2018-11-29T00:13:34.454Z,-1.31
2018-11-29T00:14:40.679Z,-1.26
2018-11-29T00:15:46.897Z,-1.33
2018-11-29T00:16:53.093Z,-1.37
2018-11-29T00:17:59.304Z,-1.43
2018-11-29T00:19:05.207Z,-1.35
2018-11-29T00:20:10.749Z,-1.31
2018-11-29T00:21:16.678Z,-1.37
2018-11-29T00:22:22.965Z,-1.36
2018-11-29T00:23:29.242Z,-1.40
2018-11-29T00:24:35.499Z,-1.36
2018-11-29T00:25:41.710Z,-1.42
2018-11-29T00:26:47.889Z,-1.38
2018-11-29T00:27:54.094Z,-1.45
2018-11-29T00:29:00.001Z,-1.51
2018-11-29T00:30:05.508Z,-1.54
2018-11-29T00:31:11.715Z,-1.56
2018-11-29T00:32:17.901Z,-1.51
2018-11-29T00:33:24.180Z,-1.51
2018-11-29T00:34:30.486Z,-1.52
2018-11-29T00:35:36.405Z,-1.53
2018-11-29T00:36:42.578Z,-1.55
2018-11-29T00:37:48.474Z,-1.52
2018-11-29T00:38:54.702Z,-1.46
2018-11-29T00:40:00.923Z,-1.53
2018-11-29T00:41:07.181Z,-1.55
2018-11-29T00:42:13.363Z,-1.53
2018-11-29T00:43:20.206Z,-1.50
2018-11-29T00:44:26.460Z,-1.52
2018-11-29T00:45:32.728Z,-1.56
2018-11-29T00:46:38.988Z,-1.44
2018-11-29T00:47:44.891Z,-1.44
2018-11-29T00:48:51.149Z,-1.49
2018-11-29T00:49:57.366Z,-1.55
2018-11-29T00:51:03.686Z,-1.59
2018-11-29T00:52:10.209Z,-1.58
2018-11-29T00:53:16.415Z,-1.53
2018-11-29T00:54:22.632Z,-1.52
2018-11-29T00:55:28.828Z,-1.60
2018-11-29T00:56:35.064Z,-1.60
2018-11-29T00:57:41.297Z,-1.60
2018-11-29T00:58:47.629Z,-1.66
2018-11-29T00:59:53.846Z,-1.67
2018-11-29T01:01:00.564Z,-1.53
2018-11-29T01:02:06.741Z,-1.51
2018-11-29T01:03:12.961Z,-1.53
2018-11-29T01:04:19.224Z,-1.43
2018-11-29T01:05:25.428Z,-1.30
2018-11-29T01:06:31.585Z,-1.26
2018-11-29T01:07:37.473Z,-1.31
2018-11-29T01:08:43.760Z,-1.26
2018-11-29T01:09:50.039Z,-1.32
2018-11-29T01:10:56.298Z,-1.33
2018-11-29T01:12:02.519Z,-1.18
2018-11-29T01:13:08.428Z,-1.18
2018-11-29T01:14:14.633Z,-1.25
2018-11-29T01:15:20.247Z,-1.25
2018-11-29T01:16:26.434Z,-1.16
2018-11-29T01:17:32.656Z,-1.28
2018-11-29T01:18:38.900Z,-1.33
2018-11-29T01:19:45.150Z,-1.44
2018-11-29T01:20:51.340Z,-1.34
2018-11-29T01:21:57.588Z,-1.38
2018-11-29T01:23:03.825Z,-1.36
2018-11-29T01:24:10.040Z,-1.43
2018-11-29T01:25:15.624Z,-1.49
2018-11-29T01:26:21.884Z,-1.39
2018-11-29T01:27:28.042Z,-1.39
2018-11-29T01:28:34.310Z,-1.40
2018-11-29T01:29:40.562Z,-1.35
2018-11-29T01:30:46.792Z,-1.42
2018-11-29T01:31:53.030Z,-1.50
2018-11-29T01:32:58.752Z,-1.52
2018-11-29T01:34:04.300Z,-1.54
2018-11-29T01:35:09.858Z,-1.52
2018-11-29T01:36:16.033Z,-1.52
2018-11-29T01:37:22.259Z,-1.53
2018-11-29T01:38:28.464Z,-1.49
2018-11-29T01:39:34.694Z,-1.53
2018-11-29T01:40:40.899Z,-1.43
2018-11-29T01:41:47.075Z,-1.33
2018-11-29T01:42:53.267Z,-1.20
2018-11-29T01:43:59.519Z,-1.37
2018-11-29T01:45:05.029Z,-1.39
2018-11-29T01:46:11.243Z,-1.39
2018-11-29T01:47:17.451Z,-1.44
2018-11-29T01:48:23.693Z,-1.46
2018-11-29T01:49:29.947Z,-1.46
2018-11-29T01:50:36.207Z,-1.47
2018-11-29T01:51:42.448Z,-1.48
2018-11-29T01:52:48.686Z,-1.48
2018-11-29T01:53:54.918Z,-1.43
2018-11-29T01:55:01.155Z,-1.44
2018-11-29T01:56:07.365Z,-1.40
2018-11-29T01:57:13.623Z,-1.30
2018-11-29T01:58:19.869Z,-1.39
2018-11-29T01:59:26.079Z,-1.46
2018-11-29T02:00:32.271Z,-1.49
2018-11-29T02:01:38.495Z,-1.53
2018-11-29T02:02:44.418Z,-1.36
2018-11-29T02:03:50.394Z,-1.07
2018-11-29T02:04:56.792Z,-0.93
2018-11-29T02:06:02.996Z,-1.05
2018-11-29T02:07:09.173Z,-1.19
2018-11-29T02:08:15.122Z,-1.16
2018-11-29T02:09:21.323Z,-1.22
2018-11-29T02:10:27.497Z,-1.25
2018-11-29T02:11:33.758Z,-1.22
2018-11-29T02:12:39.917Z,-1.24
2018-11-29T02:13:46.092Z,-1.17
2018-11-29T02:14:52.359Z,-1.13
2018-11-29T02:15:58.576Z,-1.15
2018-11-29T02:17:04.496Z,-1.28
2018-11-29T02:18:10.671Z,-1.18
2018-11-29T02:19:16.929Z,-1.22
2018-11-29T02:20:23.141Z,-1.15
2018-11-29T02:21:29.336Z,-1.15
2018-11-29T02:22:35.511Z,-1.17
2018-11-29T02:23:41.703Z,-1.16
2018-11-29T02:24:47.973Z,-1.09
2018-11-29T02:25:54.458Z,-1.10
2018-11-29T02:27:00.687Z,-1.11
2018-11-29T02:28:06.582Z,-1.07
2018-11-29T02:29:17.886Z,-1.06
2018-11-29T02:30:26.719Z,-0.99
2018-11-29T02:31:32.458Z,-0.93
2018-11-29T02:32:38.401Z,-0.92
2018-11-29T02:33:44.370Z,-0.90
2018-11-29T02:34:50.597Z,-0.94
2018-11-29T02:35:56.795Z,-0.93
2018-11-29T02:37:03.026Z,-0.92
2018-11-29T02:38:09.963Z,-0.88
2018-11-29T02:39:16.689Z,-0.82
2018-11-29T02:40:24.924Z,-0.81
2018-11-29T02:41:32.077Z,-0.92
2018-11-29T02:42:38.319Z,-1.05
2018-11-29T02:43:44.407Z,-1.07
2018-11-29T02:44:50.616Z,-1.04
2018-11-29T02:45:57.007Z,-0.98
2018-11-29T02:47:03.277Z,-0.94
2018-11-29T02:48:10.071Z,-0.84
2018-11-29T02:49:16.310Z,-0.93
2018-11-29T02:50:25.574Z,-0.97
2018-11-29T02:51:36.932Z,-0.85
2018-11-29T02:52:43.686Z,-0.86
2018-11-29T02:53:49.955Z,-0.82
2018-11-29T02:54:56.694Z,-0.84
2018-11-29T02:56:02.891Z,-0.87
2018-11-29T02:57:09.512Z,-0.81
2018-11-29T02:58:15.690Z,-0.75
2018-11-29T02:59:22.798Z,-0.73
2018-11-29T03:00:28.990Z,-0.81
2018-11-29T03:01:34.798Z,-0.55
2018-11-29T03:02:41.005Z,-0.52
2018-11-29T03:03:48.128Z,-0.58
2018-11-29T03:04:54.825Z,-0.75
2018-11-29T03:06:01.135Z,-0.81
2018-11-29T03:07:07.914Z,-0.80
2018-11-29T03:08:15.701Z,-0.81
2018-11-29T03:09:22.518Z,-0.64
2018-11-29T03:10:30.367Z,-0.82
2018-11-29T03:11:36.620Z,-0.79
2018-11-29T03:12:42.926Z,-0.89
2018-11-29T03:13:49.727Z,-0.94
2018-11-29T03:14:56.403Z,-1.01
2018-11-29T03:16:02.694Z,-1.00
2018-11-29T03:17:09.496Z,-0.89
2018-11-29T03:18:15.713Z,-0.83
2018-11-29T03:19:21.840Z,-0.74
2018-11-29T03:20:28.032Z,-0.80
2018-11-29T03:21:34.329Z,-0.89
2018-11-29T03:22:40.744Z,-0.90
2018-11-29T03:23:47.525Z,-0.95
2018-11-29T03:24:53.952Z,-1.01
2018-11-29T03:26:00.185Z,-0.98
2018-11-29T03:27:06.524Z,-0.90
2018-11-29T03:28:12.759Z,-0.90
2018-11-29T03:29:19.585Z,-0.94
2018-11-29T03:30:25.827Z,-0.94
2018-11-29T03:31:32.032Z,-0.73
2018-11-29T03:32:38.305Z,-0.80
2018-11-29T03:33:45.009Z,-0.86
2018-11-29T03:34:51.242Z,-0.87
2018-11-29T03:35:57.572Z,-0.80
2018-11-29T03:37:04.704Z,-0.84
2018-11-29T03:38:10.924Z,-0.80
2018-11-29T03:39:17.445Z,-0.82
2018-11-29T03:40:23.690Z,-0.77
2018-11-29T03:41:29.937Z,-0.78
2018-11-29T03:42:36.224Z,-0.82
2018-11-29T03:43:42.891Z,-0.78
2018-11-29T03:44:49.595Z,-0.80
2018-11-29T03:45:55.802Z,-0.79
2018-11-29T03:47:01.995Z,-0.70
2018-11-29T03:48:08.252Z,-0.59
2018-11-29T03:49:14.540Z,-0.58
2018-11-29T03:50:21.389Z,-0.50
2018-11-29T03:51:27.724Z,-0.53
2018-11-29T03:52:34.898Z,-0.54
2018-11-29T03:53:42.640Z,-0.56
2018-11-29T03:54:49.578Z,-0.60
2018-11-29T03:55:55.715Z,-0.55
2018-11-29T03:57:02.617Z,-0.46
2018-11-29T03:58:08.861Z,-0.37
2018-11-29T03:59:15.392Z,-0.38
2018-11-29T04:00:21.626Z,-0.29
2018-11-29T04:01:28.642Z,-0.24
2018-11-29T04:02:34.896Z,-0.34
2018-11-29T04:03:41.193Z,-0.41
2018-11-29T04:04:47.756Z,-0.45
2018-11-29T04:05:54.576Z,-0.49
2018-11-29T04:07:00.827Z,-0.40
2018-11-29T04:08:07.062Z,-0.45
2018-11-29T04:09:13.384Z,-0.44
2018-11-29T04:10:19.963Z,-0.38
2018-11-29T04:11:26.824Z,-0.34
2018-11-29T04:12:33.063Z,-0.36
2018-11-29T04:13:39.879Z,-0.35
2018-11-29T04:14:45.773Z,-0.34
2018-11-29T04:15:52.060Z,-0.36
2018-11-29T04:16:58.498Z,-0.39
2018-11-29T04:18:04.067Z,-0.39
2018-11-29T04:19:10.286Z,-0.31
2018-11-29T04:20:16.155Z,-0.23
2018-11-29T04:21:23.729Z,-0.29
2018-11-29T04:22:30.446Z,-0.20
2018-11-29T04:23:36.651Z,-0.16
2018-11-29T04:24:42.894Z,-0.23
2018-11-29T04:25:49.291Z,-0.19
2018-11-29T04:26:56.101Z,-0.24
2018-11-29T04:28:02.320Z,-0.22
2018-11-29T04:29:08.575Z,-0.23
2018-11-29T04:30:14.075Z,-0.20
2018-11-29T04:31:21.096Z,-0.24
2018-11-29T04:32:28.052Z,-0.23
2018-11-29T04:33:34.345Z,-0.05
2018-11-29T04:34:49.061Z,-0.18
2018-11-29T04:35:55.702Z,-0.23
2018-11-29T04:37:02.098Z,-0.19
2018-11-29T04:38:08.305Z,-0.24
2018-11-29T04:39:14.556Z,-0.31
2018-11-29T04:40:21.048Z,-0.35
2018-11-29T04:41:27.248Z,-0.33
2018-11-29T04:42:33.538Z,-0.32
2018-11-29T04:43:39.731Z,-0.29
2018-11-29T04:44:46.026Z,-0.21
2018-11-29T04:45:51.519Z,-0.14
2018-11-29T04:46:57.476Z,-0.15
2018-11-29T04:48:09.846Z,-0.13
2018-11-29T04:49:09.890Z,-0.10
2018-11-29T04:50:16.191Z,-0.14
2018-11-29T04:51:22.442Z,-0.12
2018-11-29T04:52:28.658Z,-0.17
2018-11-29T04:53:34.913Z,-0.17
2018-11-29T04:54:40.746Z,-0.08
2018-11-29T04:55:48.759Z,-0.12
2018-11-29T04:57:00.108Z,-0.13
2018-11-29T04:58:05.977Z,-0.14
2018-11-29T04:59:12.179Z,-0.15
2018-11-29T05:00:18.398Z,-0.17
2018-11-29T05:01:24.619Z,-0.14
2018-11-29T05:02:31.142Z,-0.14
2018-11-29T05:03:37.398Z,-0.10
2018-11-29T05:04:43.614Z,-0.10
2018-11-29T05:05:49.859Z,-0.11
2018-11-29T05:06:56.138Z,-0.19
2018-11-29T05:08:02.361Z,-0.23
2018-11-29T05:09:08.293Z,-0.27
2018-11-29T05:10:14.698Z,-0.10
2018-11-29T05:11:20.879Z,-0.14
2018-11-29T05:12:27.176Z,-0.12
2018-11-29T05:13:33.417Z,-0.20
2018-11-29T05:14:39.298Z,-0.15
2018-11-29T05:15:45.570Z,-0.24
2018-11-29T05:17:00.019Z,-0.33
2018-11-29T05:18:06.913Z,-0.31
2018-11-29T05:19:13.133Z,-0.29
2018-11-29T05:20:19.455Z,-0.30
2018-11-29T05:21:25.721Z,-0.29
2018-11-29T05:22:31.935Z,-0.30
2018-11-29T05:23:38.172Z,-0.11
2018-11-29T05:24:44.429Z,-0.03
2018-11-29T05:25:50.663Z,-0.09
2018-11-29T05:26:56.896Z,-0.17
2018-11-29T05:28:03.479Z,-0.22
2018-11-29T05:29:09.705Z,-0.20
2018-11-29T05:30:15.232Z,-0.19
2018-11-29T05:31:21.443Z,-0.15
2018-11-29T05:32:27.711Z,-0.14
2018-11-29T05:33:34.016Z,-0.16
2018-11-29T05:34:40.250Z,-0.14
2018-11-29T05:35:46.523Z,0.07
2018-11-29T05:36:52.691Z,0.09
2018-11-29T05:37:58.894Z,0.17
2018-11-29T05:39:09.186Z,0.14
2018-11-29T05:40:15.367Z,0.20
2018-11-29T05:41:21.613Z,0.14
2018-11-29T05:42:27.801Z,0.12
2018-11-29T05:43:34.027Z,0.12
2018-11-29T05:44:39.839Z,0.18
2018-11-29T05:45:45.706Z,0.16
2018-11-29T05:46:51.902Z,0.14
2018-11-29T05:47:58.140Z,0.13
2018-11-29T05:49:04.636Z,0.09
2018-11-29T05:50:11.159Z,0.06
2018-11-29T05:51:18.047Z,0.09
2018-11-29T05:52:24.827Z,0.08
2018-11-29T05:53:31.121Z,0.06
2018-11-29T05:54:37.296Z,0.16
2018-11-29T05:55:43.542Z,0.21
2018-11-29T05:56:49.716Z,0.21
2018-11-29T05:57:55.873Z,0.14
2018-11-29T05:59:09.133Z,0.09
2018-11-29T06:00:16.752Z,0.09
2018-11-29T06:01:23.147Z,0.08
2018-11-29T06:02:29.762Z,0.09
2018-11-29T06:03:36.580Z,0.17
2018-11-29T06:04:43.406Z,0.22
2018-11-29T06:05:49.236Z,0.24
2018-11-29T06:06:55.434Z,0.37
2018-11-29T06:08:01.680Z,0.28
2018-11-29T06:09:07.472Z,0.19
2018-11-29T06:10:12.744Z,0.21
2018-11-29T06:11:19.414Z,0.17
2018-11-29T06:12:26.928Z,0.14
2018-11-29T06:13:34.326Z,0.09
2018-11-29T06:14:41.610Z,0.13
2018-11-29T06:15:47.869Z,0.16
2018-11-29T06:16:54.190Z,0.17
2018-11-29T06:18:00.404Z,0.21
2018-11-29T06:19:05.910Z,0.21
2018-11-29T06:20:11.712Z,0.17
2018-11-29T06:21:22.521Z,0.16
2018-11-29T06:22:28.697Z,0.13
2018-11-29T06:23:34.714Z,0.15
2018-11-29T06:24:41.100Z,0.15
2018-11-29T06:25:47.426Z,0.17
2018-11-29T06:26:53.678Z,0.14
2018-11-29T06:27:59.915Z,0.16
2018-11-29T06:29:05.415Z,0.16
2018-11-29T06:30:11.012Z,0.13
2018-11-29T06:31:17.261Z,0.11
2018-11-29T06:32:23.147Z,0.12
2018-11-29T06:33:29.401Z,0.18
2018-11-29T06:34:36.866Z,0.24
2018-11-29T06:35:42.868Z,0.24
2018-11-29T06:36:49.153Z,0.19
2018-11-29T06:37:55.336Z,0.21
2018-11-29T06:39:01.518Z,0.20
2018-11-29T06:40:07.269Z,0.19
2018-11-29T06:41:13.528Z,0.18
2018-11-29T06:42:19.696Z,0.23
2018-11-29T06:43:25.918Z,0.28
2018-11-29T06:44:32.162Z,0.31
2018-11-29T06:45:38.334Z,0.32
2018-11-29T06:46:44.548Z,0.39
2018-11-29T06:47:50.768Z,0.39
2018-11-29T06:48:56.950Z,0.44
2018-11-29T06:50:02.777Z,0.46
2018-11-29T06:51:09.033Z,0.45
2018-11-29T06:52:15.263Z,0.44
2018-11-29T06:53:21.212Z,0.39
2018-11-29T06:54:27.426Z,0.35
2018-11-29T06:55:33.655Z,0.30
2018-11-29T06:56:39.861Z,0.33
2018-11-29T06:57:46.048Z,0.34
2018-11-29T06:58:52.245Z,0.41
2018-11-29T06:59:58.494Z,0.38
2018-11-29T07:01:04.356Z,0.40
2018-11-29T07:02:10.622Z,0.47
2018-11-29T07:03:16.840Z,0.53
2018-11-29T07:04:22.999Z,0.56
2018-11-29T07:05:29.169Z,0.63
2018-11-29T07:06:35.401Z,0.68
2018-11-29T07:07:41.618Z,0.70
2018-11-29T07:08:47.818Z,0.92
2018-11-29T07:09:54.032Z,0.93
2018-11-29T07:11:00.243Z,0.84
2018-11-29T07:12:06.444Z,0.79
2018-11-29T07:13:12.648Z,0.85
2018-11-29T07:14:18.866Z,0.82
2018-11-29T07:15:25.050Z,0.82
2018-11-29T07:16:31.264Z,0.83
2018-11-29T07:17:37.451Z,0.81
2018-11-29T07:18:43.625Z,0.81
2018-11-29T07:19:49.767Z,0.89
2018-11-29T07:20:55.294Z,0.94
2018-11-29T07:22:01.267Z,0.90
2018-11-29T07:23:07.787Z,0.89
2018-11-29T07:24:13.987Z,0.97
2018-11-29T07:25:19.812Z,1.04
2018-11-29T07:26:26.064Z,1.02
2018-11-29T07:27:32.231Z,0.99
2018-11-29T07:28:38.038Z,1.10
2018-11-29T07:29:44.211Z,1.10
2018-11-29T07:30:50.441Z,1.10
2018-11-29T07:31:56.680Z,1.13
2018-11-29T07:33:02.886Z,1.17
2018-11-29T07:34:09.117Z,1.19
2018-11-29T07:35:14.680Z,1.16
2018-11-29T07:36:20.623Z,1.22
2018-11-29T07:37:26.842Z,1.25
2018-11-29T07:38:33.038Z,1.22
2018-11-29T07:39:39.272Z,1.20
2018-11-29T07:40:45.178Z,1.20
2018-11-29T07:41:51.104Z,1.20
2018-11-29T07:42:57.262Z,1.17
2018-11-29T07:44:03.485Z,1.21
2018-11-29T07:45:08.981Z,1.20
2018-11-29T07:46:15.174Z,1.36
2018-11-29T07:47:21.391Z,1.37
2018-11-29T07:48:27.607Z,1.44
2018-11-29T07:49:33.524Z,1.56
2018-11-29T07:50:39.771Z,1.50
2018-11-29T07:51:46.042Z,1.52
2018-11-29T07:52:51.582Z,1.52
2018-11-29T07:53:57.794Z,1.52
2018-11-29T07:55:03.948Z,1.64
2018-11-29T07:56:09.915Z,1.73
2018-11-29T07:57:15.883Z,1.95
2018-11-29T07:58:22.115Z,1.84
2018-11-29T07:59:28.362Z,1.75
2018-11-29T08:00:34.623Z,1.80
2018-11-29T08:01:40.294Z,1.89
2018-11-29T08:02:46.488Z,1.82
2018-11-29T08:03:52.480Z,1.82
2018-11-29T08:04:58.669Z,1.81
2018-11-29T08:06:04.197Z,1.81
2018-11-29T08:07:10.069Z,1.86
2018-11-29T08:08:15.913Z,1.94
2018-11-29T08:09:21.788Z,2.01
2018-11-29T08:10:27.437Z,2.04
2018-11-29T08:11:33.641Z,2.04
2018-11-29T08:12:39.607Z,2.22
2018-11-29T08:13:45.852Z,2.21
2018-11-29T08:14:52.143Z,2.10
2018-11-29T08:15:58.376Z,2.19
2018-11-29T08:17:04.602Z,2.21
2018-11-29T08:18:10.834Z,2.14
2018-11-29T08:19:17.057Z,2.17
2018-11-29T08:20:25.561Z,2.38
2018-11-29T08:21:32.782Z,2.34
2018-11-29T08:22:40.475Z,2.35
2018-11-29T08:23:47.307Z,2.40
2018-11-29T08:24:54.214Z,2.40
2018-11-29T08:26:01.346Z,2.50
2018-11-29T08:27:09.192Z,2.49
2018-11-29T08:28:15.957Z,2.53
2018-11-29T08:29:22.038Z,2.52
2018-11-29T08:30:28.569Z,2.53
2018-11-29T08:31:34.873Z,2.66
2018-11-29T08:32:41.630Z,2.72
2018-11-29T08:33:48.441Z,2.69
2018-11-29T08:34:55.296Z,2.76
2018-11-29T08:36:01.895Z,2.66
2018-11-29T08:37:08.935Z,2.66
2018-11-29T08:38:15.920Z,2.66
2018-11-29T08:39:22.678Z,2.65
2018-11-29T08:40:28.937Z,2.77
2018-11-29T08:41:35.793Z,2.77
2018-11-29T08:42:44.767Z,2.82
2018-11-29T08:43:52.135Z,2.74
2018-11-29T08:44:58.546Z,2.72
2018-11-29T08:46:06.446Z,2.82
2018-11-29T08:47:15.612Z,2.81
2018-11-29T08:48:27.011Z,2.85
2018-11-29T08:49:34.026Z,2.82
2018-11-29T08:50:40.615Z,2.96
2018-11-29T08:51:49.752Z,2.92
2018-11-29T08:52:56.339Z,2.88
2018-11-29T08:54:03.599Z,2.82
2018-11-29T08:55:11.640Z,2.78
2018-11-29T08:56:18.073Z,2.83
2018-11-29T08:57:24.897Z,2.91
2018-11-29T08:58:31.387Z,2.84
2018-11-29T08:59:37.861Z,2.91
2018-11-29T09:00:44.678Z,2.89
2018-11-29T09:01:51.801Z,2.88
2018-11-29T09:02:58.002Z,2.92
2018-11-29T09:04:04.902Z,2.88
2018-11-29T09:05:12.343Z,2.80
2018-11-29T09:06:19.825Z,2.96
2018-11-29T09:07:27.260Z,2.94
2018-11-29T09:08:33.891Z,2.87
2018-11-29T09:09:40.470Z,2.97
2018-11-29T09:10:47.000Z,3.01
2018-11-29T09:11:53.851Z,3.05
2018-11-29T09:13:00.072Z,3.00
2018-11-29T09:14:07.105Z,3.05
2018-11-29T09:15:13.820Z,3.02
2018-11-29T09:16:21.183Z,2.98
2018-11-29T09:17:28.214Z,3.02
2018-11-29T09:18:35.349Z,3.16
2018-11-29T09:19:42.035Z,3.22
2018-11-29T09:20:48.534Z,3.29
2018-11-29T09:21:55.779Z,3.27
2018-11-29T09:23:02.513Z,3.34
2018-11-29T09:24:08.742Z,3.32
2018-11-29T09:25:18.036Z,3.46
2018-11-29T09:26:26.328Z,3.54
2018-11-29T09:27:34.969Z,3.59
2018-11-29T09:28:43.067Z,3.66
2018-11-29T09:29:49.653Z,3.66
2018-11-29T09:30:57.539Z,3.86
2018-11-29T09:32:05.019Z,3.83
2018-11-29T09:33:13.754Z,3.84
2018-11-29T09:34:20.890Z,3.88
2018-11-29T09:35:27.145Z,3.89
2018-11-29T09:36:33.374Z,3.92
2018-11-29T09:37:39.613Z,4.02
2018-11-29T09:38:46.058Z,3.93
2018-11-29T09:39:52.391Z,3.94
2018-11-29T09:40:58.612Z,3.96
2018-11-29T09:42:04.478Z,3.86
2018-11-29T09:43:10.688Z,3.86
2018-11-29T09:44:16.929Z,3.86
2018-11-29T09:45:22.529Z,3.85
2018-11-29T09:46:28.737Z,3.88
2018-11-29T09:47:34.988Z,3.96
2018-11-29T09:48:41.240Z,3.98
2018-11-29T09:49:47.484Z,3.91
2018-11-29T09:50:53.709Z,4.01
2018-11-29T09:51:59.909Z,3.93
2018-11-29T09:53:05.789Z,4.08
2018-11-29T09:54:12.018Z,3.97
2018-11-29T09:55:18.543Z,4.08
2018-11-29T09:56:24.731Z,4.02
2018-11-29T09:57:30.999Z,3.92
2018-11-29T09:58:37.218Z,4.04
2018-11-29T09:59:43.419Z,4.06
2018-11-29T10:00:49.612Z,4.09
2018-11-29T10:01:55.847Z,4.23
2018-11-29T10:03:02.050Z,4.07
2018-11-29T10:04:08.330Z,4.00
2018-11-29T10:05:14.551Z,4.09
2018-11-29T10:06:20.752Z,4.18
2018-11-29T10:07:26.989Z,4.37
2018-11-29T10:08:33.215Z,4.34
2018-11-29T10:09:39.447Z,4.32
2018-11-29T10:10:45.231Z,4.23
2018-11-29T10:11:51.451Z,4.27
2018-11-29T10:12:57.336Z,4.16
2018-11-29T10:14:03.539Z,4.30
2018-11-29T10:15:09.071Z,4.30
2018-11-29T10:16:15.260Z,4.23
2018-11-29T10:17:21.496Z,4.19
2018-11-29T10:18:27.721Z,4.21
2018-11-29T10:19:33.924Z,4.27
2018-11-29T10:20:39.764Z,4.22
2018-11-29T10:21:45.975Z,4.28
2018-11-29T10:22:52.227Z,4.43
2018-11-29T10:23:58.416Z,4.57
2018-11-29T10:25:03.933Z,4.60
2018-11-29T10:26:10.183Z,4.52
2018-11-29T10:27:16.361Z,4.50
2018-11-29T10:28:22.670Z,4.74
2018-11-29T10:29:28.931Z,4.83
2018-11-29T10:30:35.089Z,4.77
2018-11-29T10:31:42.058Z,4.90
2018-11-29T10:32:48.263Z,4.85
2018-11-29T10:33:54.461Z,4.75
2018-11-29T10:35:00.699Z,4.87
2018-11-29T10:36:05.957Z,4.83
2018-11-29T10:37:12.146Z,4.77
2018-11-29T10:38:18.373Z,4.87
2018-11-29T10:39:24.590Z,4.97
2018-11-29T10:40:30.805Z,4.93
2018-11-29T10:41:36.996Z,4.99
2018-11-29T10:42:43.270Z,4.94
2018-11-29T10:43:49.483Z,4.98
2018-11-29T10:44:55.686Z,5.03
2018-11-29T10:46:01.929Z,5.09
2018-11-29T10:47:08.155Z,5.07
2018-11-29T10:48:14.064Z,5.11
2018-11-29T10:49:20.247Z,5.07
2018-11-29T10:50:26.447Z,5.14
2018-11-29T10:51:32.675Z,5.17
2018-11-29T10:52:42.074Z,5.21
2018-11-29T10:53:49.310Z,5.27
2018-11-29T10:54:55.500Z,5.30
2018-11-29T10:56:01.721Z,5.38
2018-11-29T10:57:07.534Z,5.31
2018-11-29T10:58:13.772Z,5.29
2018-11-29T10:59:19.972Z,5.25
2018-11-29T11:00:25.536Z,5.28
2018-11-29T11:01:31.784Z,5.43
2018-11-29T11:02:37.743Z,5.66
2018-11-29T11:03:43.979Z,5.61
2018-11-29T11:04:50.217Z,5.61
2018-11-29T11:05:56.359Z,5.42
2018-11-29T11:07:02.583Z,5.26
2018-11-29T11:08:08.881Z,5.31
2018-11-29T11:09:15.307Z,5.41
2018-11-29T11:10:22.482Z,5.33
2018-11-29T11:11:29.569Z,5.32
2018-11-29T11:12:38.006Z,5.19
2018-11-29T11:13:45.155Z,5.29
2018-11-29T11:14:51.961Z,5.37
2018-11-29T11:15:58.350Z,5.41
2018-11-29T11:17:04.457Z,5.35
2018-11-29T11:18:10.324Z,5.37
2018-11-29T11:19:16.114Z,5.39
2018-11-29T11:20:21.714Z,5.39
2018-11-29T11:21:27.944Z,5.37
2018-11-29T11:22:34.220Z,5.47
2018-11-29T11:23:40.492Z,5.39
2018-11-29T11:24:46.726Z,5.38
2018-11-29T11:25:52.979Z,5.43
2018-11-29T11:26:59.259Z,5.30
2018-11-29T11:28:04.853Z,5.33
2018-11-29T11:29:11.108Z,5.41
2018-11-29T11:30:17.350Z,5.49
2018-11-29T11:31:23.599Z,5.49
2018-11-29T11:32:29.913Z,5.55
2018-11-29T11:33:36.141Z,5.61
2018-11-29T11:34:48.407Z,5.53
2018-11-29T11:35:54.597Z,5.61
2018-11-29T11:37:00.798Z,5.68
2018-11-29T11:38:06.674Z,5.61
2018-11-29T11:39:12.986Z,5.50
2018-11-29T11:40:18.854Z,5.51
2018-11-29T11:41:25.078Z,5.52
2018-11-29T11:42:31.351Z,5.57
2018-11-29T11:43:37.642Z,5.56
2018-11-29T11:44:43.909Z,5.63
2018-11-29T11:45:50.149Z,5.56
2018-11-29T11:46:56.483Z,5.73
2018-11-29T11:48:03.339Z,5.66
2018-11-29T11:49:08.920Z,5.70
2018-11-29T11:50:15.152Z,5.73
2018-11-29T11:51:21.063Z,5.75
2018-11-29T11:52:27.338Z,5.81
2018-11-29T11:53:33.665Z,5.87
2018-11-29T11:54:39.933Z,5.81
2018-11-29T11:55:53.660Z,5.81
2018-11-29T11:56:59.455Z,5.78
2018-11-29T11:58:04.947Z,5.74
2018-11-29T11:59:11.179Z,5.77
2018-11-29T12:00:17.069Z,5.95
2018-11-29T12:01:23.332Z,6.06
2018-11-29T12:02:29.533Z,6.06
2018-11-29T12:03:35.773Z,5.98
2018-11-29T12:04:42.045Z,5.92
2018-11-29T12:05:48.274Z,5.92
2018-11-29T12:06:54.504Z,5.94
2018-11-29T12:08:00.772Z,5.97
2018-11-29T12:09:06.308Z,6.07
2018-11-29T12:10:12.261Z,6.03
2018-11-29T12:11:20.293Z,6.01
2018-11-29T12:12:27.786Z,6.11
2018-11-29T12:13:35.144Z,6.02
2018-11-29T12:14:42.717Z,5.96
2018-11-29T12:15:50.597Z,6.04
2018-11-29T12:16:59.253Z,6.17
2018-11-29T12:18:08.864Z,6.09
2018-11-29T12:19:16.187Z,6.09
2018-11-29T12:20:23.611Z,6.15
2018-11-29T12:21:30.977Z,6.09
2018-11-29T12:22:38.500Z,6.12
2018-11-29T12:23:45.746Z,6.05
2018-11-29T12:24:53.251Z,6.03
2018-11-29T12:26:00.064Z,6.04
2018-11-29T12:27:06.434Z,6.06
2018-11-29T12:28:13.881Z,6.04
2018-11-29T12:29:21.360Z,6.08
2018-11-29T12:30:28.049Z,6.14
2018-11-29T12:31:34.286Z,6.19
2018-11-29T12:32:41.443Z,6.17
2018-11-29T12:33:49.521Z,6.19
2018-11-29T12:34:56.928Z,6.17
2018-11-29T12:36:05.937Z,6.16
2018-11-29T12:37:13.712Z,6.09
2018-11-29T12:38:21.089Z,6.10
2018-11-29T12:39:28.655Z,6.10
2018-11-29T12:40:36.140Z,6.07
2018-11-29T12:41:43.250Z,6.03
2018-11-29T12:42:50.668Z,6.14
2018-11-29T12:43:59.605Z,6.19
2018-11-29T12:45:07.642Z,6.11
2018-11-29T12:46:14.660Z,6.05
2018-11-29T12:47:22.785Z,6.07
2018-11-29T12:48:30.121Z,6.08
2018-11-29T12:49:38.215Z,6.23
2018-11-29T12:50:45.161Z,6.15
2018-11-29T12:51:53.191Z,6.12
2018-11-29T12:52:59.569Z,6.11
2018-11-29T12:54:06.420Z,6.13
2018-11-29T12:55:14.997Z,6.11
2018-11-29T12:56:22.981Z,6.16
2018-11-29T12:57:29.752Z,6.24
2018-11-29T12:58:36.518Z,6.16
2018-11-29T12:59:43.963Z,6.30
2018-11-29T13:00:51.391Z,6.28
2018-11-29T13:01:57.805Z,6.27
2018-11-29T13:04:10.804Z,6.21
2018-11-29T13:05:17.759Z,6.23
2018-11-29T13:06:24.014Z,6.09
2018-11-29T13:07:30.245Z,6.20
2018-11-29T13:08:36.476Z,6.32
2018-11-29T13:09:42.785Z,6.27
2018-11-29T13:10:49.496Z,6.26
2018-11-29T13:11:58.155Z,6.24
2018-11-29T13:13:05.373Z,6.26
2018-11-29T13:14:13.743Z,6.31
2018-11-29T13:15:21.095Z,6.24
2018-11-29T13:16:30.458Z,6.21
2018-11-29T13:17:37.847Z,6.37
2018-11-29T13:18:45.412Z,6.28
2018-11-29T13:19:53.066Z,6.29
2018-11-29T13:21:00.373Z,6.42
2018-11-29T13:22:07.216Z,6.30
2018-11-29T13:23:13.487Z,6.29
2018-11-29T13:24:19.765Z,6.21
2018-11-29T13:25:25.676Z,6.32
2018-11-29T13:26:31.934Z,6.33
2018-11-29T13:27:38.192Z,6.31
2018-11-29T13:28:44.407Z,6.36
2018-11-29T13:29:50.632Z,6.34
2018-11-29T13:30:56.831Z,6.37
2018-11-29T13:32:03.065Z,6.49
2018-11-29T13:33:08.908Z,6.49
2018-11-29T13:34:15.154Z,6.46
2018-11-29T13:35:20.692Z,6.40
2018-11-29T13:36:26.977Z,6.39
2018-11-29T13:37:33.257Z,6.27
2018-11-29T13:38:39.516Z,6.21
2018-11-29T13:39:45.703Z,6.16
2018-11-29T13:40:51.944Z,6.14
2018-11-29T13:41:58.208Z,6.25
2018-11-29T13:43:04.242Z,6.22
2018-11-29T13:44:10.417Z,6.15
2018-11-29T13:45:16.346Z,6.16
2018-11-29T13:46:22.641Z,6.12
2018-11-29T13:47:28.982Z,6.10
2018-11-29T13:48:35.100Z,6.12
2018-11-29T13:49:41.355Z,6.05
2018-11-29T13:50:47.646Z,5.96
2018-11-29T13:51:53.923Z,6.02
2018-11-29T13:53:00.178Z,6.06
2018-11-29T13:54:05.724Z,6.04
2018-11-29T13:55:11.569Z,6.08
2018-11-29T13:56:17.863Z,5.98
2018-11-29T13:57:24.056Z,5.94
2018-11-29T13:58:30.309Z,5.91
2018-11-29T13:59:36.498Z,5.95
2018-11-29T14:00:42.728Z,5.96
2018-11-29T14:01:48.949Z,5.93
2018-11-29T14:02:55.191Z,5.98
2018-11-29T14:04:01.362Z,6.04
2018-11-29T14:05:06.897Z,5.94
2018-11-29T14:06:13.174Z,5.86
2018-11-29T14:07:19.395Z,5.91
2018-11-29T14:08:25.598Z,5.86
2018-11-29T14:09:31.829Z,5.81
2018-11-29T14:10:38.136Z,5.78
2018-11-29T14:11:44.412Z,5.80
2018-11-29T14:12:50.345Z,5.73
2018-11-29T14:13:56.536Z,5.65
2018-11-29T14:15:02.713Z,5.72
2018-11-29T14:16:08.987Z,5.64
2018-11-29T14:17:15.228Z,5.66
2018-11-29T14:18:21.489Z,5.58
2018-11-29T14:19:27.351Z,5.54
2018-11-29T14:20:35.470Z,5.60
2018-11-29T14:21:39.508Z,5.65
2018-11-29T14:22:45.736Z,5.67
2018-11-29T14:23:52.231Z,5.59
2018-11-29T14:24:59.784Z,5.61
2018-11-29T14:26:04.552Z,5.71
2018-11-29T14:27:10.784Z,5.63
2018-11-29T14:28:17.000Z,5.57
2018-11-29T14:29:23.183Z,5.54
2018-11-29T14:30:28.960Z,5.48
2018-11-29T14:31:34.919Z,5.48
2018-11-29T14:32:41.160Z,5.51
2018-11-29T14:33:47.696Z,5.53
2018-11-29T14:34:53.938Z,5.43